This is the latest recevied weather packets stored in our database for station/object KO4LCK. If no packets are shown the sender has not sent any weather packets the latest 10 day(s).
| Time | Temp. | Humidity | Pressure | Rain* | Wind** | Luminosity | Snow |
|---|---|---|---|---|---|---|---|
| 1777578683 | 22.22° C | 50% | 1013.8 hPa | 0 mm | - | 338 W/m² | - |
| 1777578382 | 21.67° C | 52% | 1013.9 hPa | 0 mm | - | 505 W/m² | - |
| 1777578078 | 21.67° C | 54% | 1013.9 hPa | 0 mm | - | 478 W/m² | - |
| 1777577774 | 21.11° C | 49% | 1013.9 hPa | 0 mm | - | 462 W/m² | - |
| 1777577470 | 21.11° C | 48% | 1013.8 hPa | 0 mm | - | 352 W/m² | - |
| 1777577167 | 21.67° C | 52% | 1014.2 hPa | 0 mm | - | 392 W/m² | - |
| 1777576863 | 21.67° C | 54% | 1014.1 hPa | 0 mm | - | 440 W/m² | - |
| 1777576562 | 21.67° C | 52% | 1014.2 hPa | 0 mm | - | 325 W/m² | - |
| 1777576259 | 22.78° C | 48% | 1014.1 hPa | 0 mm | - | 363 W/m² | - |
| 1777575955 | 21.67° C | 52% | 1014.3 hPa | 0 mm | - | 587 W/m² | - |
| 1777575651 | 21.67° C | 49% | 1014.1 hPa | 0 mm | - | 570 W/m² | - |
| 1777575347 | 21.67° C | 50% | 1014 hPa | 0 mm | - | 498 W/m² | - |
| 1777575044 | 21.67° C | 51% | 1013.7 hPa | 0 mm | - | 484 W/m² | - |
| 1777574739 | 21.67° C | 51% | 1013.7 hPa | 0 mm | - | 562 W/m² | - |
| 1777574438 | 22.22° C | 50% | 1013.8 hPa | 0 mm | - | 557 W/m² | - |
| 1777574133 | 22.22° C | 52% | 1013.9 hPa | 0 mm | - | 604 W/m² | - |
| 1777573828 | 21.11° C | 56% | 1013.8 hPa | 0 mm | - | 582 W/m² | - |
| 1777573523 | 20.56° C | 56% | 1013.7 hPa | 0 mm | - | 513 W/m² | - |
| 1777573220 | 21.11° C | 51% | 1013.6 hPa | 0 mm | - | 440 W/m² | - |
| 1777572916 | 21.11° C | 52% | 1013.8 hPa | 0 mm | - | 587 W/m² | - |
| 1777572612 | 21.67° C | 52% | 1013.8 hPa | 0 mm | - | 511 W/m² | - |
| 1777572313 | 21.67° C | 51% | 1013.9 hPa | 0 mm | - | 522 W/m² | - |
| 1777572009 | 21.11° C | 58% | 1013.8 hPa | 0 mm | - | 549 W/m² | - |
| 1777571708 | 21.67° C | 52% | 1014.1 hPa | 0 mm | - | 499 W/m² | - |
| 1777571407 | 21.11° C | 52% | 1013.9 hPa | 0 mm | - | 629 W/m² | - |
* Rain latest hour (hover to see other rain measurements)
** Current wind speed in m/s (hover to see current wind gust speed)